Natick, Massachusetts
Current Conditions -  °F | °C
As of 1:53 AM on Thursday 27 Nov 2014 (Local Time) from KOWD Reporting Station
Light Snow Light Snow  
Wind Chill: 25°   Ceiling: 1000
Heat Index: 33°   Visibility: 2.5mi
Dew Point: 31°   Wind: 10mph
Humidity: 92%   Direction: 330°NNW
Pressure: 29.72"   Gusts: 18mph
Location:  42.28°N, 71.35°W
Report Text: KOWD 270653Z 33009G16KT 2 1/2SM -SN BR BKN010 OVC018 01/M01 A2972 RMK AO2 UPE08FZRAB08E49SNB49 SLP064 P0000 I1001 T00061006 $
Loading
Personal Weather Stations






























Interactive Weather Map New forecast layout! Learn more

10-Day Weather Forecast

Advertisements
Track Severe Weather on mobile